Time;durP1;ratioP1;P1;durP2;ratioP2;P2;SDS_P1;SDS_P2;PMS_P1;PMS_P2;Temp;Humidity;BMP_temperature;BMP_pressure;BME280_temperature;BME280_humidity;BME280_pressure;Samples;Min_cycle;Max_cycle;Signal;HPM_P1;HPM_P2
2024/01/27 00:02:24;;;;;;;4.20;1.40;;;;;;;4.97;100.00;100501.33;51903;1267;1077389;-79
2024/01/27 00:05:09;;;;;;;7.60;2.20;;;;;;;4.97;100.00;100509.80;51836;1268;1076971;-79
2024/01/27 00:07:55;;;;;;;7.80;2.00;;;;;;;4.97;100.00;100519.58;51848;1268;1077253;-79
2024/01/27 00:10:41;;;;;;;9.40;2.00;;;;;;;4.95;100.00;100521.15;51883;1267;1077122;-78
2024/01/27 00:13:27;;;;;;;5.00;1.70;;;;;;;4.94;100.00;100525.48;51838;1267;1077562;-80
2024/01/27 00:16:13;;;;;;;7.80;2.10;;;;;;;4.94;100.00;100531.05;51885;1268;1076462;-79
2024/01/27 00:18:59;;;;;;;9.10;1.60;;;;;;;4.92;100.00;100534.59;51890;1268;1076405;-80
2024/01/27 00:21:44;;;;;;;9.00;1.80;;;;;;;4.92;100.00;100534.08;51783;1267;1077379;-79
2024/01/27 00:24:30;;;;;;;5.00;1.30;;;;;;;4.90;100.00;100535.86;51823;1267;1077023;-79
2024/01/27 00:27:16;;;;;;;8.80;2.60;;;;;;;4.89;100.00;100544.61;51852;1267;1076847;-79
2024/01/27 00:30:02;;;;;;;7.40;2.20;;;;;;;4.88;100.00;100552.02;51914;1270;1076762;-78
2024/01/27 00:32:47;;;;;;;6.20;1.70;;;;;;;4.86;100.00;100554.66;51953;1268;1079501;-79
2024/01/27 00:35:33;;;;;;;5.30;1.40;;;;;;;4.84;100.00;100560.33;51790;1270;1078141;-80
2024/01/27 00:38:19;;;;;;;7.50;1.60;;;;;;;4.84;100.00;100566.05;51817;1267;1076316;-79
2024/01/27 00:41:05;;;;;;;6.30;2.00;;;;;;;4.80;100.00;100567.81;51819;1270;1076306;-79
2024/01/27 00:43:51;;;;;;;7.30;1.80;;;;;;;4.78;100.00;100570.70;51786;1267;1076827;-79
2024/01/27 00:46:37;;;;;;;9.70;2.40;;;;;;;4.77;100.00;100581.25;51787;1266;1076622;-79
2024/01/27 00:49:23;;;;;;;11.60;2.50;;;;;;;4.74;100.00;100589.61;51737;1270;1076764;-79
2024/01/27 00:52:12;;;;;;;8.10;1.70;;;;;;;4.74;100.00;100596.23;51907;1267;1076571;-79
2024/01/27 00:54:58;;;;;;;9.90;1.90;;;;;;;4.73;100.00;100605.81;51869;1266;1077288;-79
2024/01/27 00:57:43;;;;;;;7.10;1.70;;;;;;;4.72;100.00;100613.92;51887;1268;1076616;-80
2024/01/27 01:00:29;;;;;;;8.70;1.80;;;;;;;4.70;100.00;100607.73;51801;1267;1076340;-79
2024/01/27 01:03:15;;;;;;;7.30;1.50;;;;;;;4.69;100.00;100603.41;52180;1270;1076458;-79
2024/01/27 01:06:01;;;;;;;5.90;1.90;;;;;;;4.68;100.00;100617.63;51816;1269;1076148;-79
2024/01/27 01:08:47;;;;;;;12.10;2.30;;;;;;;4.65;100.00;100616.98;51817;1267;1077339;-79
2024/01/27 01:11:32;;;;;;;17.10;2.80;;;;;;;4.64;100.00;100617.68;51869;1267;1076745;-79
2024/01/27 01:14:18;;;;;;;11.30;2.10;;;;;;;4.62;100.00;100620.17;51820;1270;1076031;-78
2024/01/27 01:17:04;;;;;;;3.90;1.60;;;;;;;4.62;100.00;100623.99;51884;1267;1076453;-78
2024/01/27 01:19:51;;;;;;;7.40;2.00;;;;;;;4.63;100.00;100624.07;51748;1270;1076392;-79
2024/01/27 01:22:36;;;;;;;13.20;3.30;;;;;;;4.63;100.00;100622.77;51934;1267;1076376;-78
2024/01/27 01:25:22;;;;;;;11.50;2.70;;;;;;;4.61;100.00;100620.77;51661;1266;1076685;-78
2024/01/27 01:28:08;;;;;;;16.60;3.30;;;;;;;4.61;100.00;100623.11;51521;1268;1077305;-79
2024/01/27 01:30:53;;;;;;;11.70;2.30;;;;;;;4.60;100.00;100627.39;51821;1267;1077147;-80
2024/01/27 01:33:39;;;;;;;20.50;4.40;;;;;;;4.61;100.00;100626.99;51940;1267;1076403;-79
2024/01/27 01:36:25;;;;;;;15.50;2.70;;;;;;;4.61;100.00;100623.81;51891;1268;1077512;-79
2024/01/27 01:39:12;;;;;;;15.50;2.70;;;;;;;4.62;100.00;100627.24;51885;1267;1076725;-79
2024/01/27 01:41:58;;;;;;;9.50;3.10;;;;;;;4.62;100.00;100626.34;51866;1267;1076403;-78
2024/01/27 01:44:44;;;;;;;7.50;1.90;;;;;;;4.63;100.00;100631.38;51832;1268;1076487;-79
2024/01/27 01:47:30;;;;;;;11.20;2.10;;;;;;;4.65;100.00;100634.58;51884;1268;1076708;-79
2024/01/27 01:50:15;;;;;;;13.40;2.50;;;;;;;4.64;100.00;100630.02;51927;1267;1077356;-78
2024/01/27 01:53:01;;;;;;;16.40;2.70;;;;;;;4.64;100.00;100628.98;51729;1268;1076834;-78
2024/01/27 01:55:47;;;;;;;11.60;2.40;;;;;;;4.63;100.00;100629.22;51646;1271;1076503;-78
2024/01/27 01:58:34;;;;;;;12.30;2.80;;;;;;;4.63;100.00;100627.27;51750;1270;1076756;-79
2024/01/27 02:01:21;;;;;;;12.10;2.40;;;;;;;4.63;100.00;100627.89;51760;1267;1076867;-79
2024/01/27 02:04:06;;;;;;;12.10;2.80;;;;;;;4.61;100.00;100634.92;51883;1267;1077164;-79
2024/01/27 02:06:52;;;;;;;14.20;3.20;;;;;;;4.59;100.00;100634.77;51973;1270;1077677;-78
2024/01/27 02:09:38;;;;;;;12.50;2.30;;;;;;;4.56;100.00;100637.91;51989;1269;1076298;-78
2024/01/27 02:12:24;;;;;;;10.90;2.70;;;;;;;4.53;100.00;100638.67;51895;1267;1076228;-78
2024/01/27 02:15:14;;;;;;;12.80;2.20;;;;;;;4.52;100.00;100632.04;51900;1268;1077724;-79
2024/01/27 02:17:59;;;;;;;10.10;2.00;;;;;;;4.51;100.00;100643.35;51889;1268;1076251;-79
2024/01/27 02:20:45;;;;;;;14.30;3.00;;;;;;;4.50;100.00;100637.44;51888;1267;1077275;-80
2024/01/27 02:23:31;;;;;;;9.00;2.30;;;;;;;4.49;100.00;100639.52;51906;1266;1076213;-79
2024/01/27 02:26:16;;;;;;;12.90;2.80;;;;;;;4.46;100.00;100634.44;51797;1267;1076253;-79
2024/01/27 02:29:02;;;;;;;14.30;3.70;;;;;;;4.47;100.00;100636.00;51624;1270;1076769;-79
2024/01/27 02:31:48;;;;;;;17.00;4.00;;;;;;;4.45;100.00;100640.50;51996;1266;1076990;-78
2024/01/27 02:34:34;;;;;;;12.50;3.70;;;;;;;4.45;100.00;100637.04;51976;1270;1077394;-78
2024/01/27 02:37:19;;;;;;;18.00;3.10;;;;;;;4.43;100.00;100643.42;51987;1267;1076882;-79
2024/01/27 02:40:07;;;;;;;17.30;3.50;;;;;;;4.43;100.00;100647.69;51895;1266;1076602;-78
2024/01/27 02:42:53;;;;;;;17.80;3.60;;;;;;;4.42;100.00;100656.92;51866;1268;1076337;-78
2024/01/27 02:45:38;;;;;;;15.30;3.20;;;;;;;4.41;100.00;100654.38;51931;1268;1079137;-78
2024/01/27 02:48:24;;;;;;;17.50;3.50;;;;;;;4.42;100.00;100653.79;51970;1268;1076781;-78
2024/01/27 02:51:13;;;;;;;15.10;2.50;;;;;;;4.42;100.00;100660.64;51831;1273;1088729;-79
2024/01/27 02:53:58;;;;;;;19.60;3.50;;;;;;;4.41;100.00;100661.69;51901;1271;1076512;-78
2024/01/27 02:56:44;;;;;;;22.50;3.40;;;;;;;4.40;100.00;100662.45;51913;1275;1076532;-80
2024/01/27 02:59:30;;;;;;;11.20;3.20;;;;;;;4.40;100.00;100663.10;52101;1271;1076929;-79
2024/01/27 03:02:16;;;;;;;11.10;2.60;;;;;;;4.41;100.00;100665.91;51842;1270;1078131;-79
2024/01/27 03:05:02;;;;;;;18.90;3.50;;;;;;;4.40;100.00;100659.44;51854;1268;1076755;-79
2024/01/27 03:07:48;;;;;;;9.10;2.40;;;;;;;4.40;100.00;100665.60;51968;1268;1076254;-79
2024/01/27 03:10:33;;;;;;;15.90;3.30;;;;;;;4.41;100.00;100661.31;51929;1270;1077075;-79
2024/01/27 03:13:19;;;;;;;11.10;3.30;;;;;;;4.41;100.00;100654.72;51888;1269;1076682;-78
2024/01/27 03:16:08;;;;;;;14.50;3.20;;;;;;;4.42;100.00;100653.08;51821;1270;1077139;-79
2024/01/27 03:18:54;;;;;;;17.10;2.90;;;;;;;4.42;100.00;100661.50;51912;1267;1076761;-79
2024/01/27 03:21:40;;;;;;;13.00;3.30;;;;;;;4.42;100.00;100661.86;51923;1268;1075938;-79
2024/01/27 03:24:26;;;;;;;17.70;3.40;;;;;;;4.42;100.00;100665.05;51894;1267;1077097;-79
2024/01/27 03:27:11;;;;;;;12.80;3.00;;;;;;;4.43;100.00;100669.38;51747;1269;1079016;-80
2024/01/27 03:30:01;;;;;;;13.30;3.40;;;;;;;4.44;100.00;100667.72;51829;1270;1076716;-79
2024/01/27 03:32:48;;;;;;;13.00;3.70;;;;;;;4.43;100.00;100677.17;51940;1273;1076681;-77
2024/01/27 03:35:34;;;;;;;11.50;3.80;;;;;;;4.43;100.00;100672.60;51799;1268;1076667;-79
2024/01/27 03:38:19;;;;;;;11.30;2.90;;;;;;;4.43;100.00;100680.02;51760;1268;1076600;-79
2024/01/27 03:41:06;;;;;;;14.40;3.80;;;;;;;4.44;100.00;100674.48;52088;1266;1077220;-80
2024/01/27 03:43:51;;;;;;;16.30;3.60;;;;;;;4.44;100.00;100677.05;51945;1271;1076470;-77
2024/01/27 03:46:39;;;;;;;11.70;4.00;;;;;;;4.45;100.00;100675.59;51874;1267;1076629;-78
2024/01/27 03:49:25;;;;;;;11.80;3.80;;;;;;;4.45;100.00;100679.29;51815;1270;1078330;-79
2024/01/27 03:52:11;;;;;;;14.10;3.40;;;;;;;4.45;100.00;100675.91;51869;1268;1076990;-79
2024/01/27 03:54:57;;;;;;;16.40;4.40;;;;;;;4.44;100.00;100681.10;51820;1266;1076270;-78
2024/01/27 03:57:42;;;;;;;16.40;3.10;;;;;;;4.44;100.00;100681.48;51859;1271;1076020;-78
2024/01/27 04:00:32;;;;;;;15.80;2.90;;;;;;;4.44;100.00;100685.80;51902;1267;1077307;-79
2024/01/27 04:03:18;;;;;;;17.50;3.90;;;;;;;4.44;100.00;100691.27;51919;1267;1076932;-78
2024/01/27 04:06:03;;;;;;;13.80;3.30;;;;;;;4.44;100.00;100697.27;51873;1268;1076784;-78
2024/01/27 04:08:49;;;;;;;11.50;3.40;;;;;;;4.44;100.00;100701.09;51798;1267;1077751;-79
2024/01/27 04:11:36;;;;;;;13.70;3.70;;;;;;;4.44;100.00;100698.64;51837;1267;1076777;-79
2024/01/27 04:14:22;;;;;;;25.70;4.00;;;;;;;4.45;100.00;100707.06;51934;1267;1078491;-78
2024/01/27 04:17:08;;;;;;;9.60;3.20;;;;;;;4.45;100.00;100710.25;51860;1266;1077418;-78
2024/01/27 04:19:54;;;;;;;22.30;4.30;;;;;;;4.44;100.00;100715.25;51904;1266;1076197;-79
2024/01/27 04:22:39;;;;;;;15.60;3.30;;;;;;;4.45;100.00;100714.13;51889;1271;1076937;-79
2024/01/27 04:25:25;;;;;;;17.10;4.20;;;;;;;4.44;100.00;100718.44;51877;1268;1076510;-79
2024/01/27 04:28:12;;;;;;;17.50;4.20;;;;;;;4.41;100.00;100712.91;51885;1272;1076095;-79
2024/01/27 04:30:58;;;;;;;14.70;3.20;;;;;;;4.40;100.00;100719.02;51890;1270;1076949;-79
2024/01/27 04:33:44;;;;;;;13.40;3.70;;;;;;;4.39;100.00;100720.38;51915;1270;1077899;-80
2024/01/27 04:36:30;;;;;;;12.10;3.70;;;;;;;4.37;100.00;100722.11;51944;1268;1077520;-78
2024/01/27 04:39:16;;;;;;;13.10;3.70;;;;;;;4.36;100.00;100720.16;51794;1270;1076893;-79
2024/01/27 04:42:02;;;;;;;19.60;4.30;;;;;;;4.34;100.00;100717.81;51724;1268;1078363;-79
2024/01/27 04:44:48;;;;;;;17.40;3.70;;;;;;;4.34;100.00;100715.05;51693;1268;1077866;-78
2024/01/27 04:47:34;;;;;;;16.50;3.50;;;;;;;4.33;100.00;100724.80;51604;1267;1076162;-78
2024/01/27 04:50:20;;;;;;;19.40;3.90;;;;;;;4.33;100.00;100723.58;51933;1271;1077204;-79
2024/01/27 04:53:06;;;;;;;19.10;3.80;;;;;;;4.33;100.00;100719.70;51691;1267;1076632;-80
2024/01/27 04:55:52;;;;;;;15.70;3.70;;;;;;;4.33;100.00;100723.91;51895;1270;1076039;-79
2024/01/27 04:58:38;;;;;;;20.40;4.10;;;;;;;4.34;100.00;100722.77;51938;1268;1076639;-79
2024/01/27 05:01:23;;;;;;;18.70;3.80;;;;;;;4.37;100.00;100726.77;51988;1271;1077263;-80
2024/01/27 05:04:09;;;;;;;11.80;2.50;;;;;;;4.38;100.00;100720.15;52116;1268;1076256;-79
2024/01/27 05:06:55;;;;;;;14.10;3.40;;;;;;;4.38;100.00;100717.94;51925;1271;1079054;-79
2024/01/27 05:09:41;;;;;;;13.80;3.80;;;;;;;4.40;100.00;100713.41;51899;1271;1077292;-79
2024/01/27 05:12:27;;;;;;;19.00;3.10;;;;;;;4.38;100.00;100711.21;48084;1268;11003825;-79
2024/01/27 05:15:13;;;;;;;14.40;3.20;;;;;;;4.38;100.00;100711.06;51844;1268;1099389;-78
2024/01/27 05:17:59;;;;;;;11.70;4.30;;;;;;;4.38;100.00;100707.23;51864;1271;1101581;-79
2024/01/27 05:20:44;;;;;;;11.50;2.80;;;;;;;4.38;100.00;100710.23;51821;1268;1099510;-79
2024/01/27 05:23:30;;;;;;;13.90;2.90;;;;;;;4.38;100.00;100710.21;51985;1269;1100169;-80
2024/01/27 05:26:16;;;;;;;19.30;4.30;;;;;;;4.38;100.00;100707.18;51873;1268;1098268;-79
2024/01/27 05:29:02;;;;;;;19.90;4.70;;;;;;;4.38;100.00;100707.57;51824;1268;1098757;-79
2024/01/27 05:31:48;;;;;;;16.50;3.40;;;;;;;4.37;100.00;100708.33;51828;1271;1098734;-79
2024/01/27 05:34:33;;;;;;;17.50;4.40;;;;;;;4.37;100.00;100708.17;51779;1266;1099034;-80
2024/01/27 05:37:19;;;;;;;16.80;3.10;;;;;;;4.37;100.00;100703.27;51934;1271;1098833;-79
2024/01/27 05:40:07;;;;;;;11.80;3.30;;;;;;;4.36;100.00;100701.80;51907;1270;1098523;-79
2024/01/27 05:42:54;;;;;;;17.20;4.00;;;;;;;4.35;100.00;100706.29;51884;1271;1098694;-79
2024/01/27 05:45:40;;;;;;;17.20;4.40;;;;;;;4.33;100.00;100698.88;51826;1270;1098574;-79
2024/01/27 05:48:26;;;;;;;13.30;3.50;;;;;;;4.30;100.00;100698.09;51898;1270;1098805;-78
2024/01/27 05:51:12;;;;;;;17.30;4.20;;;;;;;4.26;100.00;100701.42;51837;1284;1099747;-79
2024/01/27 05:53:58;;;;;;;21.30;5.00;;;;;;;4.23;100.00;100705.65;51904;1267;1099975;-78
2024/01/27 05:56:43;;;;;;;16.50;5.00;;;;;;;4.17;100.00;100713.02;51841;1270;1099882;-80
2024/01/27 05:59:29;;;;;;;15.70;4.10;;;;;;;4.13;100.00;100719.15;51945;1273;1099136;-79
2024/01/27 06:02:17;;;;;;;16.70;4.30;;;;;;;4.08;100.00;100715.00;52199;1268;1099842;-79
2024/01/27 06:05:03;;;;;;;23.50;4.80;;;;;;;4.04;100.00;100724.55;52064;1268;1099857;-79
2024/01/27 06:07:49;;;;;;;11.80;3.20;;;;;;;4.01;100.00;100724.66;52112;1270;1098531;-80
2024/01/27 06:10:37;;;;;;;17.40;4.20;;;;;;;3.98;100.00;100718.79;52312;1267;1099429;-79
2024/01/27 06:13:23;;;;;;;15.10;3.20;;;;;;;3.95;100.00;100725.60;52072;1280;1098210;-80
2024/01/27 06:16:10;;;;;;;18.50;3.70;;;;;;;3.91;100.00;100732.13;52172;1267;1099119;-81
2024/01/27 06:18:56;;;;;;;12.20;3.00;;;;;;;3.90;100.00;100729.21;52135;1267;1098834;-80
2024/01/27 06:21:41;;;;;;;14.10;3.40;;;;;;;3.87;100.00;100731.77;52190;1268;1098753;-81
2024/01/27 06:24:27;;;;;;;19.70;4.20;;;;;;;3.85;100.00;100740.48;52207;1270;1100171;-80
2024/01/27 06:27:13;;;;;;;14.70;4.20;;;;;;;3.82;100.00;100742.46;52400;1270;1099763;-80
2024/01/27 06:29:59;;;;;;;15.20;3.60;;;;;;;3.80;100.00;100741.59;52088;1277;1098869;-80
2024/01/27 06:32:47;;;;;;;18.50;3.90;;;;;;;3.79;100.00;100742.92;51592;1268;1098946;-78
2024/01/27 06:35:33;;;;;;;18.40;4.80;;;;;;;3.77;100.00;100744.05;51500;1274;1098157;-78
2024/01/27 06:38:18;;;;;;;36.00;10.00;;;;;;;3.74;100.00;100745.16;51735;1270;1098566;-77
2024/01/27 06:41:04;;;;;;;18.50;5.50;;;;;;;3.71;100.00;100749.67;51586;1273;1098504;-78
2024/01/27 06:43:50;;;;;;;34.60;11.60;;;;;;;3.68;100.00;100756.02;51719;1273;1098189;-78
2024/01/27 06:46:36;;;;;;;20.70;7.50;;;;;;;3.63;100.00;100756.05;51512;1271;1098921;-78
2024/01/27 06:49:21;;;;;;;21.10;8.20;;;;;;;3.59;100.00;100762.66;51778;1273;1098122;-78
2024/01/27 06:52:07;;;;;;;14.70;5.00;;;;;;;3.54;100.00;100761.18;51901;1270;1099297;-79
2024/01/27 06:54:53;;;;;;;14.70;5.10;;;;;;;3.50;100.00;100770.89;51954;1268;1099276;-79
2024/01/27 06:57:40;;;;;;;14.90;4.80;;;;;;;3.47;100.00;100770.45;51846;1268;1098554;-78
2024/01/27 07:00:27;;;;;;;21.60;5.60;;;;;;;3.44;100.00;100765.05;51864;1270;1098946;-78
2024/01/27 07:03:12;;;;;;;21.10;6.80;;;;;;;3.44;100.00;100764.23;51901;1268;1098801;-78
2024/01/27 07:06:01;;;;;;;19.10;5.60;;;;;;;3.42;100.00;100769.52;51923;1270;1098111;-78
2024/01/27 07:08:46;;;;;;;17.60;5.70;;;;;;;3.40;100.00;100761.78;51817;1268;1098911;-78
2024/01/27 07:11:33;;;;;;;22.50;5.70;;;;;;;3.37;100.00;100766.23;51864;1271;1098893;-77
2024/01/27 07:14:19;;;;;;;17.50;5.10;;;;;;;3.34;100.00;100769.02;52052;1272;1098794;-79
2024/01/27 07:17:05;;;;;;;19.10;5.20;;;;;;;3.35;100.00;100770.36;51849;1268;1099410;-78
2024/01/27 07:19:51;;;;;;;13.50;4.50;;;;;;;3.33;100.00;100769.95;51802;1268;1098144;-79
2024/01/27 07:22:36;;;;;;;20.10;5.50;;;;;;;3.32;100.00;100770.40;51906;1273;1099035;-78
2024/01/27 07:25:22;;;;;;;21.10;7.40;;;;;;;3.30;100.00;100776.26;51835;1273;1098848;-78
2024/01/27 07:28:08;;;;;;;27.10;8.50;;;;;;;3.31;100.00;100777.23;51732;1285;1099415;-86
2024/01/27 07:30:54;;;;;;;24.40;8.50;;;;;;;3.30;100.00;100778.14;51970;1267;1099628;-85
2024/01/27 07:33:40;;;;;;;29.50;13.10;;;;;;;3.29;100.00;100778.27;51864;1274;1099128;-89
2024/01/27 07:36:30;;;;;;;20.30;9.30;;;;;;;3.29;100.00;100783.40;51950;1268;1098423;-85
2024/01/27 07:39:16;;;;;;;18.90;8.20;;;;;;;3.28;100.00;100781.15;51925;1274;1099037;-84
2024/01/27 07:42:02;;;;;;;19.20;7.40;;;;;;;3.28;100.00;100778.48;51734;1274;1098976;-84
2024/01/27 07:44:49;;;;;;;21.00;7.10;;;;;;;3.30;100.00;100780.67;51831;1284;1099622;-83
2024/01/27 07:47:35;;;;;;;19.10;5.40;;;;;;;3.29;100.00;100782.14;51822;1271;1099784;-79
2024/01/27 07:50:22;;;;;;;13.50;4.90;;;;;;;3.30;100.00;100785.73;51739;1271;1099763;-85
2024/01/27 07:53:08;;;;;;;19.60;5.40;;;;;;;3.31;100.00;100785.48;52022;1272;1098963;-85
2024/01/27 07:55:53;;;;;;;18.00;5.60;;;;;;;3.33;100.00;100786.56;51659;1274;1098259;-84
2024/01/27 07:58:40;;;;;;;19.00;5.10;;;;;;;3.33;100.00;100785.48;52013;1267;1099775;-85
2024/01/27 08:01:25;;;;;;;16.50;5.10;;;;;;;3.33;100.00;100790.63;51838;1268;1099272;-83
2024/01/27 08:04:12;;;;;;;18.20;5.00;;;;;;;3.34;100.00;100793.52;51718;1274;1098262;-85
2024/01/27 08:06:57;;;;;;;16.80;4.70;;;;;;;3.34;100.00;100793.64;51825;1268;1098980;-78
2024/01/27 08:12:37;;;;;;;18.40;6.10;;;;;;;3.35;100.00;100795.90;52585;1257;1097299;-83
2024/01/27 08:15:22;;;;;;;18.10;5.00;;;;;;;3.33;100.00;100798.73;51713;1270;1099342;-76
2024/01/27 08:18:09;;;;;;;19.40;6.10;;;;;;;3.32;100.00;100800.71;51608;1265;1098307;-78
2024/01/27 08:20:54;;;;;;;14.30;5.60;;;;;;;3.34;100.00;100802.56;51700;1272;1099741;-78
2024/01/27 08:23:41;;;;;;;13.70;5.30;;;;;;;3.36;100.00;100805.89;51804;1270;1098909;-78
2024/01/27 08:26:26;;;;;;;17.30;5.50;;;;;;;3.38;100.00;100805.56;51647;1267;1098395;-77
2024/01/27 08:29:12;;;;;;;19.00;9.30;;;;;;;3.38;100.00;100811.52;51715;1281;1099567;-77
2024/01/27 08:31:58;;;;;;;19.20;9.50;;;;;;;3.39;100.00;100816.19;51808;1268;1099306;-77
2024/01/27 08:34:43;;;;;;;17.10;6.60;;;;;;;3.40;100.00;100824.05;51672;1270;1099574;-76
2024/01/27 08:37:31;;;;;;;20.40;7.80;;;;;;;3.42;100.00;100824.23;51511;1279;1098356;-77
2024/01/27 08:40:17;;;;;;;10.70;4.80;;;;;;;3.45;100.00;100824.50;51501;1270;1098476;-77
2024/01/27 08:43:02;;;;;;;14.00;4.90;;;;;;;3.45;100.00;100820.38;51619;1270;1099673;-77
2024/01/27 08:45:48;;;;;;;14.40;4.60;;;;;;;3.46;100.00;100823.02;51686;1264;1099503;-76
2024/01/27 08:48:34;;;;;;;11.90;4.90;;;;;;;3.48;100.00;100834.77;51633;1269;1099380;-76
2024/01/27 08:51:20;;;;;;;11.10;5.10;;;;;;;3.48;100.00;100839.55;51463;1269;1098806;-76
2024/01/27 08:54:06;;;;;;;8.60;3.70;;;;;;;3.48;100.00;100838.30;51467;1271;1098969;-77
2024/01/27 08:56:52;;;;;;;13.30;3.50;;;;;;;3.48;100.00;100844.13;51497;1276;1098436;-76
2024/01/27 08:59:38;;;;;;;8.20;3.90;;;;;;;3.50;100.00;100848.52;51512;1277;1099188;-76
2024/01/27 09:02:24;;;;;;;10.30;3.30;;;;;;;3.52;100.00;100846.09;51718;1267;1098754;-78
2024/01/27 09:05:09;;;;;;;7.40;3.50;;;;;;;3.53;100.00;100854.63;51774;1267;1099054;-77
2024/01/27 09:07:58;;;;;;;8.40;3.40;;;;;;;3.53;100.00;100864.67;51759;1270;1098695;-78
2024/01/27 09:10:44;;;;;;;9.30;3.10;;;;;;;3.51;100.00;100865.46;51663;1272;1099021;-77
2024/01/27 09:13:30;;;;;;;6.70;3.00;;;;;;;3.48;100.00;100868.48;51632;1270;1098565;-77
2024/01/27 09:16:15;;;;;;;6.90;3.20;;;;;;;3.48;100.00;100872.60;51626;1279;1099301;-77
2024/01/27 09:19:01;;;;;;;8.00;4.10;;;;;;;3.49;100.00;100882.58;51472;1266;1099645;-77
2024/01/27 09:21:48;;;;;;;9.70;3.50;;;;;;;3.51;100.00;100883.30;51526;1264;1099133;-76
2024/01/27 09:24:33;;;;;;;6.00;3.20;;;;;;;3.51;100.00;100889.59;51510;1267;1098416;-76
2024/01/27 09:27:19;;;;;;;5.10;2.90;;;;;;;3.53;100.00;100890.64;51470;1270;1098521;-76
2024/01/27 09:30:06;;;;;;;6.50;3.40;;;;;;;3.53;100.00;100897.17;51574;1269;1099411;-76
2024/01/27 09:32:52;;;;;;;10.30;6.80;;;;;;;3.54;100.00;100900.67;51538;1270;1099747;-76
2024/01/27 09:35:38;;;;;;;6.60;3.40;;;;;;;3.57;100.00;100905.15;51507;1267;1098406;-89
2024/01/27 09:38:24;;;;;;;10.50;4.10;;;;;;;3.60;100.00;100913.92;51924;1270;1099167;-82
2024/01/27 09:41:12;;;;;;;5.70;2.40;;;;;;;3.60;100.00;100914.18;52105;1278;1098829;-84
2024/01/27 09:44:02;;;;;;;8.80;3.40;;;;;;;3.60;100.00;100921.62;51789;1270;1098957;-81
2024/01/27 09:46:48;;;;;;;7.40;2.90;;;;;;;3.61;100.00;100924.58;51900;1270;1099240;-85
2024/01/27 09:49:34;;;;;;;6.20;2.90;;;;;;;3.61;100.00;100928.77;52008;1265;1099098;-80
2024/01/27 09:52:20;;;;;;;8.80;2.40;;;;;;;3.61;100.00;100931.04;52083;1267;1099452;-85
2024/01/27 09:55:07;;;;;;;4.00;2.00;;;;;;;3.63;100.00;100933.98;51979;1267;1098788;-84
2024/01/27 09:57:53;;;;;;;4.70;2.00;;;;;;;3.61;100.00;100932.66;51999;1264;1099433;-81
2024/01/27 10:00:39;;;;;;;3.50;2.20;;;;;;;3.59;100.00;100934.27;52185;1267;1099121;-85
2024/01/27 10:03:27;;;;;;;4.50;2.40;;;;;;;3.60;100.00;100942.11;51881;1270;1100667;-81
2024/01/27 10:06:16;;;;;;;6.30;2.30;;;;;;;3.62;100.00;100952.35;51864;1267;1099287;-81
2024/01/27 10:09:02;;;;;;;5.00;2.00;;;;;;;3.61;100.00;100953.68;51981;1265;1098649;-81
2024/01/27 10:11:48;;;;;;;4.40;2.30;;;;;;;3.58;100.00;100959.08;51924;1267;1100307;-81
2024/01/27 10:14:39;;;;;;;2.80;2.10;;;;;;;3.57;100.00;100961.13;51810;1267;1100507;-83
2024/01/27 10:17:29;;;;;;;4.00;2.00;;;;;;;3.59;100.00;100965.33;52121;1267;1099012;-83
2024/01/27 10:20:18;;;;;;;2.70;2.00;;;;;;;3.57;100.00;100973.25;52085;1267;1099043;-84
2024/01/27 10:23:11;;;;;;;3.20;2.00;;;;;;;3.56;100.00;100971.08;51686;1270;1099237;-82
2024/01/27 10:25:57;;;;;;;4.00;2.10;;;;;;;3.54;100.00;100971.46;51972;1266;1098306;-82
2024/01/27 10:28:43;;;;;;;4.90;1.80;;;;;;;3.50;100.00;100976.36;51851;1267;1099626;-82
2024/01/27 10:31:30;;;;;;;3.20;1.80;;;;;;;3.46;100.00;100992.77;52071;1270;1098900;-80
2024/01/27 10:34:20;;;;;;;3.40;1.60;;;;;;;3.46;100.00;100986.82;51887;1265;1099090;-83
2024/01/27 10:37:06;;;;;;;4.00;2.10;;;;;;;3.45;100.00;100993.23;52060;1267;1098879;-79
2024/01/27 10:40:00;;;;;;;4.00;1.90;;;;;;;3.46;100.00;100996.35;52019;1268;1098199;-83
2024/01/27 10:42:51;;;;;;;2.00;1.50;;;;;;;3.44;100.00;101006.05;51977;1264;1098906;-84
2024/01/27 10:45:41;;;;;;;3.90;1.80;;;;;;;3.45;100.00;101009.00;51968;1270;1098205;-83
2024/01/27 10:48:28;;;;;;;2.40;1.80;;;;;;;3.46;100.00;101018.77;52035;1264;1098581;-85
2024/01/27 10:51:18;;;;;;;6.70;1.80;;;;;;;3.44;100.00;101023.34;51884;1269;1099359;-88
2024/01/27 10:54:07;;;;;;;1.90;1.50;;;;;;;3.40;100.00;101028.84;52084;1270;1098514;-88
2024/01/27 10:57:02;;;;;;;2.70;1.60;;;;;;;3.36;100.00;101031.95;51861;1267;1099212;-86
2024/01/27 10:59:48;;;;;;;3.50;1.50;;;;;;;3.35;100.00;101037.92;51897;1270;1100452;-86
2024/01/27 11:02:36;;;;;;;2.40;1.30;;;;;;;3.31;100.00;101040.52;51742;1267;1098980;-84
2024/01/27 11:05:24;;;;;;;3.10;1.90;;;;;;;3.30;100.00;101042.77;51781;1267;1098952;-88
2024/01/27 11:08:12;;;;;;;1.90;1.40;;;;;;;3.28;100.00;101054.04;51993;1269;1098574;-83
2024/01/27 11:11:00;;;;;;;2.60;1.50;;;;;;;3.25;100.00;101054.27;51809;1267;1098423;-81
2024/01/27 11:13:48;;;;;;;5.50;2.10;;;;;;;3.23;100.00;101062.00;51589;1267;1098943;-84
2024/01/27 11:16:34;;;;;;;2.50;1.90;;;;;;;3.20;100.00;101061.23;52182;1272;1098939;-86
2024/01/27 11:19:21;;;;;;;3.80;1.90;;;;;;;3.21;100.00;101069.45;51964;1267;1098691;-87
2024/01/27 11:22:17;;;;;;;3.10;1.70;;;;;;;3.19;100.00;101071.70;52186;1270;1099820;-85
2024/01/27 11:25:16;;;;;;;2.90;1.60;;;;;;;3.19;100.00;101079.89;51977;1267;1098792;-87
2024/01/27 11:28:11;;;;;;;3.00;2.00;;;;;;;3.17;100.00;101084.42;51863;1274;1099022;-90
2024/01/27 11:30:57;;;;;;;3.10;1.90;;;;;;;3.16;100.00;101089.11;51875;1267;1098614;-86
2024/01/27 11:33:48;;;;;;;3.40;2.00;;;;;;;3.15;100.00;101095.70;51774;1270;1099235;-77
2024/01/27 11:36:34;;;;;;;2.90;1.90;;;;;;;3.16;100.00;101097.94;51537;1269;1098373;-77
2024/01/27 11:39:25;;;;;;;2.40;1.80;;;;;;;3.19;100.00;101106.52;51439;1267;1099026;-76
2024/01/27 11:42:13;;;;;;;3.00;2.20;;;;;;;3.19;100.00;101122.08;51531;1267;1099000;-75
2024/01/27 11:44:58;;;;;;;3.00;2.10;;;;;;;3.16;100.00;101121.60;51599;1268;1098408;-80
2024/01/27 11:47:52;;;;;;;3.70;2.10;;;;;;;3.16;100.00;101120.65;51997;1265;1099068;-85
2024/01/27 11:50:38;;;;;;;3.50;2.10;;;;;;;3.17;100.00;101128.33;52040;1267;1100115;-87
2024/01/27 11:53:24;;;;;;;4.10;2.10;;;;;;;3.17;100.00;101137.54;51998;1267;1099263;-85
2024/01/27 11:56:10;;;;;;;5.00;1.90;;;;;;;3.20;100.00;101142.63;52006;1267;1099351;-85
2024/01/27 11:58:56;;;;;;;3.00;2.10;;;;;;;3.22;100.00;101152.09;51753;1273;1098940;-79
2024/01/27 12:01:42;;;;;;;3.30;2.40;;;;;;;3.26;100.00;101157.42;52004;1267;1108640;-81
2024/01/27 12:04:28;;;;;;;3.00;2.00;;;;;;;3.30;100.00;101156.64;52119;1267;1099259;-81
2024/01/27 12:07:14;;;;;;;3.40;2.40;;;;;;;3.32;100.00;101163.67;51951;1268;1099314;-86
2024/01/27 12:10:01;;;;;;;4.80;2.10;;;;;;;3.34;100.00;101169.71;51802;1271;1100384;-79
2024/01/27 12:12:47;;;;;;;3.60;1.90;;;;;;;3.36;100.00;101170.73;52030;1267;1099310;-79
2024/01/27 12:15:33;;;;;;;2.40;1.80;;;;;;;3.37;100.00;101173.59;52011;1270;1099257;-81
2024/01/27 12:18:18;;;;;;;3.40;2.10;;;;;;;3.42;100.00;101186.98;52045;1267;1098962;-84
2024/01/27 12:21:04;;;;;;;4.00;2.10;;;;;;;3.45;100.00;101193.59;51681;1274;1098444;-84
2024/01/27 12:23:55;;;;;;;4.10;2.30;;;;;;;3.50;100.00;101197.61;51754;1271;1098906;-86
2024/01/27 12:26:41;;;;;;;3.00;2.10;;;;;;;3.54;100.00;101199.60;52190;1267;1099273;-84
2024/01/27 12:29:28;;;;;;;2.20;1.90;;;;;;;3.58;100.00;101208.42;52071;1267;1100026;-84
2024/01/27 12:32:15;;;;;;;3.20;2.00;;;;;;;3.62;100.00;101216.04;52080;1267;1098436;-85
2024/01/27 12:35:05;;;;;;;2.70;2.10;;;;;;;3.65;100.00;101216.86;52022;1267;1098493;-77